createdAt,value
2023-03-04T00:00:11.212Z,26.80
2023-03-04T00:02:45.020Z,26.30
2023-03-04T00:05:16.290Z,25.70
2023-03-04T00:09:58.817Z,26.60
2023-03-04T00:12:27.720Z,25.10
2023-03-04T00:14:54.458Z,23.60
2023-03-04T00:17:28.468Z,28.10
2023-03-04T00:20:00.447Z,26.60
2023-03-04T00:22:29.016Z,23.80
2023-03-04T00:24:59.653Z,24.50
2023-03-04T00:27:27.201Z,25.40
2023-03-04T00:29:53.938Z,24.50
2023-03-04T00:32:21.265Z,26.00
2023-03-04T00:34:51.413Z,31.20
2023-03-04T00:37:20.026Z,27.40
2023-03-04T00:39:48.998Z,24.70
2023-03-04T00:42:16.844Z,24.90
2023-03-04T00:44:43.723Z,29.20
2023-03-04T00:47:10.681Z,22.20
2023-03-04T00:49:39.256Z,24.50
2023-03-04T00:52:07.375Z,25.00
2023-03-04T00:54:42.460Z,26.80
2023-03-04T00:57:09.472Z,26.60
2023-03-04T00:59:36.416Z,21.70
2023-03-04T01:02:03.353Z,27.90
2023-03-04T01:04:32.975Z,25.80
2023-03-04T01:07:00.785Z,23.60
2023-03-04T01:09:29.122Z,22.60
2023-03-04T01:11:56.459Z,27.00
2023-03-04T01:14:23.645Z,26.80
2023-03-04T01:16:50.871Z,27.70
2023-03-04T01:19:21.162Z,24.60
2023-03-04T01:21:49.358Z,26.80
2023-03-04T01:24:19.944Z,22.50
2023-03-04T01:26:47.630Z,29.50
2023-03-04T01:29:21.027Z,24.60
2023-03-04T01:31:52.220Z,28.50
2023-03-04T01:34:25.981Z,24.30
2023-03-04T01:36:52.977Z,25.60
2023-03-04T01:39:19.725Z,25.60
2023-03-04T01:41:46.986Z,23.50
2023-03-04T01:44:14.363Z,33.10
2023-03-04T01:46:48.238Z,29.90
2023-03-04T01:49:16.537Z,23.50
2023-03-04T01:51:46.292Z,27.50
2023-03-04T01:54:13.833Z,32.10
2023-03-04T01:56:43.065Z,26.60
2023-03-04T01:59:16.723Z,27.10
2023-03-04T02:02:04.615Z,28.90
2023-03-04T02:04:33.700Z,33.90
2023-03-04T02:07:01.689Z,34.60
2023-03-04T02:09:29.677Z,32.00
2023-03-04T02:11:56.400Z,31.90
2023-03-04T02:14:24.842Z,36.10
2023-03-04T02:16:55.855Z,30.80
2023-03-04T02:19:27.515Z,36.80
2023-03-04T02:21:54.446Z,42.20
2023-03-04T02:24:32.525Z,39.10
2023-03-04T02:26:59.753Z,38.80
2023-03-04T02:29:26.594Z,37.90
2023-03-04T02:31:53.487Z,38.70
2023-03-04T02:34:25.516Z,38.20
2023-03-04T02:36:54.397Z,40.10
2023-03-04T02:39:25.251Z,37.20
2023-03-04T02:41:53.036Z,34.20
2023-03-04T02:44:23.939Z,38.60
2023-03-04T02:46:51.471Z,39.20
2023-03-04T02:49:19.104Z,42.60
2023-03-04T02:51:46.868Z,42.70
2023-03-04T02:54:22.016Z,37.30
2023-03-04T02:56:50.863Z,41.90
2023-03-04T02:59:18.189Z,40.00
2023-03-04T03:01:50.052Z,37.90
2023-03-04T03:04:17.917Z,39.90
2023-03-04T03:06:45.185Z,41.20
2023-03-04T03:09:16.594Z,46.00
2023-03-04T03:11:46.774Z,45.10
2023-03-04T03:14:15.256Z,46.30
2023-03-04T03:16:42.844Z,38.40
2023-03-04T03:19:11.700Z,43.20
2023-03-04T03:21:39.084Z,42.70
2023-03-04T03:24:05.983Z,41.10
2023-03-04T03:26:33.894Z,43.50
2023-03-04T03:29:00.586Z,42.60
2023-03-04T03:31:28.824Z,47.10
2023-03-04T03:33:58.801Z,41.70
2023-03-04T03:36:27.367Z,39.50
2023-03-04T03:38:54.533Z,48.20
2023-03-04T03:41:21.318Z,43.50
2023-03-04T03:43:48.596Z,40.50
2023-03-04T03:46:15.349Z,43.60
2023-03-04T03:48:43.118Z,44.50
2023-03-04T03:51:10.780Z,45.90
2023-03-04T03:53:37.820Z,39.60
2023-03-04T03:56:05.385Z,40.30
2023-03-04T03:58:33.343Z,41.10
2023-03-04T04:01:00.377Z,46.60
2023-03-04T04:03:27.120Z,43.10
2023-03-04T04:05:53.871Z,39.30
2023-03-04T04:08:24.810Z,41.80
2023-03-04T04:10:52.617Z,44.10
2023-03-04T04:13:19.461Z,40.80
2023-03-04T04:15:53.438Z,38.70
2023-03-04T04:18:23.352Z,43.10
2023-03-04T04:20:51.483Z,41.00
2023-03-04T04:23:18.434Z,36.90
2023-03-04T04:25:45.224Z,40.70
2023-03-04T04:28:14.401Z,42.70
2023-03-04T04:30:41.463Z,43.40
2023-03-04T04:33:13.293Z,39.90
2023-03-04T04:35:40.819Z,42.80
2023-03-04T04:38:08.497Z,39.30
2023-03-04T04:40:36.700Z,44.40
2023-03-04T04:43:04.283Z,45.10
2023-03-04T04:45:33.880Z,42.10
2023-03-04T04:48:00.910Z,40.20
2023-03-04T04:50:32.954Z,41.50
2023-03-04T04:53:00.451Z,43.70
2023-03-04T04:55:27.834Z,41.20
2023-03-04T04:57:55.256Z,40.70
2023-03-04T05:00:22.656Z,40.30
2023-03-04T05:02:51.009Z,43.30
2023-03-04T05:05:18.154Z,44.40
2023-03-04T05:07:51.811Z,44.10
2023-03-04T05:10:20.762Z,41.40
2023-03-04T05:12:47.771Z,43.00
2023-03-04T05:15:15.068Z,39.10
2023-03-04T05:17:41.791Z,41.10
2023-03-04T05:20:10.479Z,40.10
2023-03-04T05:22:37.293Z,43.40
2023-03-04T05:25:05.030Z,38.50
2023-03-04T05:27:32.481Z,39.20
2023-03-04T05:29:59.565Z,40.50
2023-03-04T05:32:28.246Z,44.40
2023-03-04T05:34:55.203Z,39.80
2023-03-04T05:37:22.568Z,43.60
2023-03-04T05:39:49.902Z,39.50
2023-03-04T05:42:16.827Z,40.00
2023-03-04T05:44:44.310Z,37.70
2023-03-04T05:47:11.357Z,43.00
2023-03-04T05:49:40.551Z,39.10
2023-03-04T05:52:10.535Z,36.60
2023-03-04T05:54:37.422Z,35.90
2023-03-04T05:57:04.209Z,33.60
2023-03-04T05:59:31.092Z,36.00
2023-03-04T06:01:58.475Z,38.80
2023-03-04T06:04:25.294Z,41.80
2023-03-04T06:06:53.498Z,36.70
2023-03-04T06:09:21.355Z,34.00
2023-03-04T06:11:47.949Z,38.80
2023-03-04T06:14:14.844Z,39.00
2023-03-04T06:16:42.880Z,44.90
2023-03-04T06:19:09.827Z,40.30
2023-03-04T06:21:42.074Z,38.00
2023-03-04T06:24:08.894Z,38.80
2023-03-04T06:26:35.951Z,40.80
2023-03-04T06:29:04.266Z,38.80
2023-03-04T06:31:31.692Z,38.60
2023-03-04T06:33:58.572Z,39.60
2023-03-04T06:36:25.257Z,37.70
2023-03-04T06:38:52.043Z,41.60
2023-03-04T06:41:19.928Z,42.60
2023-03-04T06:43:53.716Z,46.10
2023-03-04T06:46:30.067Z,36.30
2023-03-04T06:48:57.592Z,34.80
2023-03-04T06:51:26.556Z,34.60
2023-03-04T06:54:06.460Z,42.20
2023-03-04T06:56:37.590Z,42.50
2023-03-04T06:59:04.678Z,35.90
2023-03-04T07:01:32.856Z,42.50
2023-03-04T07:04:09.865Z,43.40
2023-03-04T07:06:37.694Z,37.90
2023-03-04T07:09:07.999Z,40.90
2023-03-04T07:11:39.730Z,42.40
2023-03-04T07:14:14.888Z,43.60
2023-03-04T07:16:53.214Z,42.10
2023-03-04T07:19:22.441Z,45.30
2023-03-04T07:21:59.308Z,46.30
2023-03-04T07:24:27.146Z,44.20
2023-03-04T07:26:54.613Z,41.00
2023-03-04T07:29:34.674Z,43.80
2023-03-04T07:32:08.637Z,42.90
2023-03-04T07:34:36.566Z,46.50
2023-03-04T07:37:06.494Z,45.10
2023-03-04T07:39:36.118Z,37.30
2023-03-04T07:42:04.085Z,43.10
2023-03-04T07:44:31.199Z,48.60
2023-03-04T07:46:57.980Z,46.00
2023-03-04T07:49:25.095Z,47.30
2023-03-04T07:51:52.136Z,44.00
2023-03-04T07:54:19.738Z,48.10
2023-03-04T07:56:48.603Z,45.40
2023-03-04T07:59:17.121Z,42.00
2023-03-04T08:01:45.652Z,46.20
2023-03-04T08:04:13.853Z,43.10
2023-03-04T08:06:41.284Z,42.60
2023-03-04T08:09:09.655Z,47.00
2023-03-04T08:11:37.539Z,45.40
2023-03-04T08:14:04.892Z,50.00
2023-03-04T08:16:34.804Z,50.20
2023-03-04T08:19:03.019Z,46.30
2023-03-04T08:21:29.750Z,43.70
2023-03-04T08:24:01.800Z,48.60
2023-03-04T08:26:40.362Z,44.60
2023-03-04T08:29:10.211Z,48.20
2023-03-04T08:31:40.227Z,44.20
2023-03-04T08:34:09.979Z,48.10
2023-03-04T08:36:36.880Z,45.60
2023-03-04T08:39:05.328Z,51.70
2023-03-04T08:41:34.116Z,46.20
2023-03-04T08:44:02.543Z,41.90
2023-03-04T08:46:29.759Z,53.60
2023-03-04T08:49:00.234Z,42.60
2023-03-04T08:51:27.869Z,46.40
2023-03-04T08:53:54.930Z,47.90
2023-03-04T08:56:21.739Z,48.30
2023-03-04T08:58:48.731Z,52.90
2023-03-04T09:01:15.542Z,49.10
2023-03-04T09:03:45.580Z,43.70
2023-03-04T09:06:16.265Z,44.10
2023-03-04T09:08:47.970Z,46.20
2023-03-04T09:11:16.965Z,46.80
2023-03-04T09:13:45.651Z,51.70
2023-03-04T09:16:14.247Z,47.70
2023-03-04T09:18:41.215Z,44.70
2023-03-04T09:21:11.615Z,41.60
2023-03-04T09:23:39.882Z,49.50
2023-03-04T09:26:21.377Z,44.20
2023-03-04T09:28:52.503Z,45.30
2023-03-04T09:31:19.410Z,45.10
2023-03-04T09:33:48.768Z,44.30
2023-03-04T09:36:16.807Z,38.50
2023-03-04T09:38:52.302Z,43.00
2023-03-04T09:41:23.502Z,37.50
2023-03-04T09:43:50.496Z,42.50
2023-03-04T09:46:38.073Z,41.80
2023-03-04T09:49:07.308Z,36.20
2023-03-04T09:51:47.902Z,39.10
2023-03-04T09:54:21.860Z,40.70
2023-03-04T09:56:57.131Z,40.10
2023-03-04T10:00:06.565Z,36.40
2023-03-04T10:03:05.665Z,40.30
2023-03-04T10:05:34.430Z,47.10
2023-03-04T10:08:28.849Z,38.60
2023-03-04T10:11:01.964Z,37.20
2023-03-04T10:13:59.019Z,31.20
2023-03-04T10:16:39.968Z,33.00
2023-03-04T10:19:18.436Z,38.80
2023-03-04T10:21:54.987Z,36.90
2023-03-04T10:24:27.173Z,33.10
2023-03-04T10:26:58.143Z,32.70
2023-03-04T10:29:26.422Z,34.80
2023-03-04T10:32:00.595Z,32.00
2023-03-04T10:34:36.265Z,32.70
2023-03-04T10:37:09.265Z,33.50
2023-03-04T10:39:47.538Z,30.50
2023-03-04T10:42:15.022Z,31.50
2023-03-04T10:45:03.792Z,33.60
2023-03-04T10:47:32.269Z,32.20
2023-03-04T10:50:01.800Z,32.60
2023-03-04T10:52:46.836Z,32.80
2023-03-04T10:55:41.693Z,33.00
2023-03-04T10:58:19.457Z,29.70
2023-03-04T11:01:04.966Z,32.80
2023-03-04T11:03:36.475Z,28.90
2023-03-04T11:06:30.438Z,30.10
2023-03-04T11:09:00.477Z,30.80
2023-03-04T11:11:41.840Z,27.00
2023-03-04T11:14:35.138Z,32.70
2023-03-04T11:17:40.146Z,33.20
2023-03-04T11:20:28.686Z,30.40
2023-03-04T11:22:57.810Z,26.60
2023-03-04T11:25:28.229Z,25.80
2023-03-04T11:28:04.305Z,30.50
2023-03-04T11:30:38.196Z,28.70
2023-03-04T11:33:20.609Z,27.90
2023-03-04T11:35:51.189Z,29.60
2023-03-04T11:38:28.958Z,24.00
2023-03-04T11:41:20.477Z,35.80
2023-03-04T11:43:49.083Z,30.20
2023-03-04T11:46:52.579Z,28.60
2023-03-04T11:49:32.420Z,26.30
2023-03-04T11:52:12.420Z,26.50
2023-03-04T11:55:02.732Z,29.00
2023-03-04T11:57:57.863Z,30.00
2023-03-04T12:00:45.427Z,30.00
2023-03-04T12:03:58.086Z,25.70
2023-03-04T12:07:08.125Z,26.10
2023-03-04T12:09:56.819Z,29.70
2023-03-04T12:13:05.284Z,25.40
2023-03-04T12:15:57.846Z,30.50
2023-03-04T12:18:54.720Z,30.10
2023-03-04T12:21:36.793Z,27.90
2023-03-04T12:28:02.796Z,31.70
2023-03-04T12:30:58.810Z,43.40
2023-03-04T12:34:09.272Z,28.70
2023-03-04T12:36:45.298Z,31.50
2023-03-04T12:40:02.988Z,30.60
2023-03-04T12:42:39.462Z,26.70
2023-03-04T12:45:25.574Z,27.50
2023-03-04T12:48:25.398Z,29.40
2023-03-04T13:32:01.065Z,28.50
2023-03-04T13:34:50.901Z,27.30
2023-03-04T13:37:30.978Z,35.30
2023-03-04T13:40:27.519Z,33.10
2023-03-04T13:42:56.564Z,30.40
2023-03-04T13:45:35.835Z,30.60
2023-03-04T13:48:09.480Z,32.40
2023-03-04T13:50:44.547Z,31.10
2023-03-04T13:53:33.775Z,30.90
2023-03-04T13:56:10.456Z,33.70
2023-03-04T13:58:39.165Z,29.40
2023-03-04T14:01:29.114Z,27.40
2023-03-04T14:03:58.910Z,34.60
2023-03-04T14:06:31.547Z,37.90
2023-03-04T14:08:59.775Z,31.20
2023-03-04T14:11:31.615Z,28.40
2023-03-04T14:14:00.588Z,29.30
2023-03-04T14:16:31.056Z,25.90
2023-03-04T14:19:03.681Z,26.00
2023-03-04T14:21:31.950Z,24.90
2023-03-04T14:24:03.732Z,23.20
2023-03-04T14:26:33.109Z,25.70
2023-03-04T14:29:03.141Z,21.30
2023-03-04T14:31:32.063Z,20.90
2023-03-04T14:34:02.416Z,20.50
2023-03-04T14:36:35.532Z,20.30
2023-03-04T14:39:06.033Z,20.40
2023-03-04T14:41:36.812Z,21.50
2023-03-04T14:44:36.165Z,20.70
2023-03-04T14:47:20.182Z,20.80
2023-03-04T14:49:48.694Z,22.60
2023-03-04T14:52:32.960Z,18.70
2023-03-04T14:55:13.958Z,20.90
2023-03-04T14:57:43.685Z,18.50
2023-03-04T15:00:21.868Z,20.00
2023-03-04T15:02:55.651Z,20.60
2023-03-04T15:05:26.681Z,20.80
2023-03-04T15:07:59.915Z,22.90
2023-03-04T15:10:35.604Z,21.90
2023-03-04T15:13:06.305Z,21.10
2023-03-04T15:15:43.295Z,18.10
2023-03-04T15:18:28.097Z,23.10
2023-03-04T15:21:29.993Z,21.80
2023-03-04T15:23:58.335Z,20.60
2023-03-04T15:26:27.153Z,20.50
2023-03-04T15:28:55.306Z,21.30
2023-03-04T15:31:25.879Z,21.50
2023-03-04T15:33:54.939Z,18.30
2023-03-04T15:36:23.520Z,20.50
2023-03-04T15:38:53.451Z,28.60
2023-03-04T15:41:24.020Z,17.70
2023-03-04T15:43:54.766Z,18.00
2023-03-04T15:46:22.882Z,20.00
2023-03-04T15:48:50.860Z,19.10
2023-03-04T15:51:22.587Z,20.70
2023-03-04T15:53:52.455Z,21.70
2023-03-04T15:56:22.966Z,20.50
2023-03-04T15:58:58.206Z,20.80
2023-03-04T16:01:27.553Z,22.60
2023-03-04T16:03:55.789Z,24.90
2023-03-04T16:06:25.624Z,20.90
2023-03-04T16:08:54.576Z,18.70
2023-03-04T16:11:24.962Z,21.10
2023-03-04T16:13:53.282Z,18.00
2023-03-04T16:16:21.301Z,17.70
2023-03-04T16:18:49.788Z,20.50
2023-03-04T16:21:19.249Z,21.40
2023-03-04T16:23:48.390Z,22.80
2023-03-04T16:26:18.503Z,20.40
2023-03-04T16:28:47.260Z,19.30
2023-03-04T16:31:15.571Z,19.20
2023-03-04T16:33:45.080Z,22.00
2023-03-04T16:36:20.277Z,20.90
2023-03-04T16:38:48.895Z,21.20
2023-03-04T16:41:17.885Z,19.00
2023-03-04T16:43:45.813Z,20.30
2023-03-04T16:46:13.939Z,25.80
2023-03-04T16:48:42.333Z,22.70
2023-03-04T16:51:20.826Z,19.70
2023-03-04T16:53:52.104Z,19.70
2023-03-04T16:56:20.901Z,20.80
2023-03-04T16:58:49.336Z,28.40
2023-03-04T17:01:26.190Z,21.20
2023-03-04T17:03:55.227Z,21.80
2023-03-04T17:06:25.782Z,20.80
2023-03-04T17:08:54.073Z,18.10
2023-03-04T17:11:28.033Z,21.70
2023-03-04T17:13:57.974Z,20.40
2023-03-04T17:16:32.886Z,19.40
2023-03-04T17:19:04.988Z,19.40
2023-03-04T17:21:33.892Z,20.60
2023-03-04T17:24:03.624Z,18.10
2023-03-04T17:26:41.200Z,19.60
2023-03-04T17:29:10.069Z,26.70
2023-03-04T17:31:38.806Z,17.60
2023-03-04T17:34:09.364Z,18.40
2023-03-04T17:36:37.746Z,18.90
2023-03-04T17:39:06.301Z,20.60
2023-03-04T17:41:36.316Z,17.60
2023-03-04T17:44:06.120Z,18.90
2023-03-04T17:46:37.150Z,21.80
2023-03-04T17:49:06.100Z,19.60
2023-03-04T17:51:36.628Z,19.30
2023-03-04T17:54:05.834Z,18.90
2023-03-04T17:56:35.787Z,17.50
2023-03-04T17:59:08.399Z,16.10
2023-03-04T18:01:36.523Z,17.20
2023-03-04T18:04:04.909Z,17.10
2023-03-04T18:06:33.265Z,19.50
2023-03-04T18:09:05.974Z,21.90
2023-03-04T18:11:36.934Z,19.20
2023-03-04T18:14:05.152Z,19.10
2023-03-04T18:16:33.561Z,17.50
2023-03-04T18:19:03.553Z,17.30
2023-03-04T18:21:35.967Z,19.20
2023-03-04T18:24:04.625Z,21.60
2023-03-04T18:26:32.916Z,20.30
2023-03-04T18:29:02.493Z,16.30
2023-03-04T18:31:32.475Z,21.00
2023-03-04T18:34:01.818Z,18.00
2023-03-04T18:36:30.553Z,17.20
2023-03-04T18:38:59.655Z,18.10
2023-03-04T18:41:29.353Z,15.50
2023-03-04T18:43:57.514Z,19.40
2023-03-04T18:46:52.492Z,18.90
2023-03-04T18:49:21.156Z,17.60
2023-03-04T18:51:49.389Z,17.00
2023-03-04T18:54:18.512Z,16.50
2023-03-04T18:56:53.216Z,18.30
2023-03-04T18:59:26.572Z,17.90
2023-03-04T19:01:54.607Z,18.90
2023-03-04T19:04:22.685Z,15.70
2023-03-04T19:06:51.148Z,19.50
2023-03-04T19:09:19.917Z,17.90
2023-03-04T19:11:48.100Z,18.20
2023-03-04T19:14:22.296Z,18.60
2023-03-04T19:16:52.036Z,21.50
2023-03-04T19:19:20.409Z,19.80
2023-03-04T19:21:49.202Z,21.80
2023-03-04T19:24:17.454Z,23.40
2023-03-04T19:26:45.538Z,20.70
2023-03-04T19:29:14.027Z,20.30
2023-03-04T19:31:42.620Z,21.00
2023-03-04T19:34:11.189Z,23.40
2023-03-04T19:36:39.172Z,20.90
2023-03-04T19:39:08.824Z,24.20
2023-03-04T19:41:37.229Z,20.30
2023-03-04T19:44:05.297Z,21.20
2023-03-04T19:46:34.783Z,23.20
2023-03-04T19:49:04.748Z,25.70
2023-03-04T19:51:33.274Z,24.90
2023-03-04T19:54:01.906Z,24.70
2023-03-04T19:56:30.029Z,22.70
2023-03-04T19:58:58.000Z,22.90
2023-03-04T20:01:33.791Z,24.00
2023-03-04T20:04:08.197Z,24.20
2023-03-04T20:06:37.401Z,23.80
2023-03-04T20:09:05.955Z,49.60
2023-03-04T20:11:39.214Z,24.30
2023-03-04T20:14:14.841Z,22.70
2023-03-04T20:16:44.193Z,23.60
2023-03-04T20:19:12.877Z,21.00
2023-03-04T20:21:40.856Z,27.00
2023-03-04T20:24:08.889Z,26.10
2023-03-04T20:26:48.125Z,27.00
2023-03-04T20:29:16.716Z,23.70
2023-03-04T20:31:46.235Z,25.40
2023-03-04T20:34:14.640Z,25.70
2023-03-04T20:36:42.885Z,24.40
2023-03-04T20:39:27.402Z,25.70
2023-03-04T20:42:00.728Z,19.10
2023-03-04T20:44:31.783Z,14.50
2023-03-04T20:47:00.804Z,12.20
2023-03-04T20:49:29.257Z,12.40
2023-03-04T20:52:03.048Z,11.60
2023-03-04T20:54:31.528Z,10.60
2023-03-04T20:57:00.029Z,9.80
2023-03-04T20:59:28.197Z,7.90
2023-03-04T21:02:01.529Z,7.90
2023-03-04T21:04:32.530Z,6.40
2023-03-04T21:07:02.313Z,6.80
2023-03-04T21:09:31.650Z,7.20
2023-03-04T21:12:01.095Z,3.50
2023-03-04T21:14:31.802Z,6.20
2023-03-04T21:17:03.180Z,4.10
2023-03-04T21:19:34.300Z,6.30
2023-03-04T21:22:08.502Z,5.30
2023-03-04T21:24:41.246Z,3.00
2023-03-04T21:27:09.755Z,4.20
2023-03-04T21:29:39.424Z,2.20
2023-03-04T21:32:23.432Z,1.50
2023-03-04T21:34:53.274Z,1.20
2023-03-04T21:37:22.446Z,1.80
2023-03-04T21:39:52.029Z,1.90
2023-03-04T21:42:21.265Z,1.50
2023-03-04T21:44:51.440Z,2.60
2023-03-04T21:47:20.778Z,1.70
2023-03-04T21:49:48.900Z,3.30
2023-03-04T21:52:20.701Z,5.00
2023-03-04T21:54:49.132Z,2.30
2023-03-04T21:57:19.730Z,3.50
2023-03-04T21:59:48.499Z,1.80
2023-03-04T22:02:18.333Z,1.60
2023-03-04T22:04:48.063Z,2.30
2023-03-04T22:07:16.567Z,1.20
2023-03-04T22:09:47.453Z,1.90
2023-03-04T22:12:19.482Z,3.20
2023-03-04T22:14:48.159Z,1.90
2023-03-04T22:17:16.393Z,3.30
2023-03-04T22:19:45.056Z,2.70
2023-03-04T22:22:13.224Z,2.10
2023-03-04T22:24:42.464Z,2.00
2023-03-04T22:27:10.435Z,3.80
2023-03-04T22:29:41.366Z,2.50
2023-03-04T22:32:09.593Z,4.20
2023-03-04T22:34:39.109Z,10.60
2023-03-04T22:37:07.413Z,2.80
2023-03-04T22:39:35.445Z,2.80
2023-03-04T22:42:03.607Z,4.50
2023-03-04T22:44:31.671Z,2.80
2023-03-04T22:47:00.437Z,1.90
2023-03-04T22:49:28.686Z,1.30
2023-03-04T22:52:00.628Z,4.40
2023-03-04T22:54:29.753Z,1.80
2023-03-04T22:56:58.043Z,1.40
2023-03-04T22:59:26.058Z,2.40
2023-03-04T23:01:57.481Z,2.80
2023-03-04T23:04:26.518Z,3.10
2023-03-04T23:06:54.693Z,2.30
2023-03-04T23:09:23.546Z,2.30
2023-03-04T23:11:52.065Z,3.10
2023-03-04T23:14:20.720Z,1.90
2023-03-04T23:16:49.308Z,2.90
2023-03-04T23:19:17.896Z,2.50
2023-03-04T23:21:45.949Z,3.30
2023-03-04T23:24:14.078Z,2.70
2023-03-04T23:26:42.794Z,3.00
2023-03-04T23:29:12.353Z,3.30
2023-03-04T23:31:40.958Z,2.40
2023-03-04T23:34:12.797Z,3.70
2023-03-04T23:36:43.101Z,3.50
2023-03-04T23:39:11.358Z,2.80
2023-03-04T23:41:41.561Z,1.40
2023-03-04T23:44:11.039Z,3.00
2023-03-04T23:46:42.890Z,3.90
2023-03-04T23:49:12.733Z,4.30
2023-03-04T23:51:41.201Z,3.80
2023-03-04T23:54:09.681Z,2.10
2023-03-04T23:56:38.033Z,1.90
2023-03-04T23:59:10.080Z,3.10
